Karasuk, Russia
Current Conditions -  °F | °C
As of 11:00 PM on Monday 22 Dec 2014 (Local Time) from UASP Reporting Station
Clear Clear  
Wind Chill:   Ceiling: Unl
Heat Index: 10°   Visibility: 6mi
Dew Point:   Wind: 7mph
Humidity: 85%   Direction: 140°SE
Pressure: 30.21"   Gusts: NA
Location:  53.73°N, 78.03°E
Report Text: UASP 221600Z 14003MPS CAVOK M12/M14 Q1023 R21/390245 NOSIG RMKQFE756/1008
Loading
Personal Weather Stations






























Interactive Weather Map New forecast layout! Learn more

10-Day Weather Forecast

Advertisements
Track Severe Weather on mobile